sensor_id;sensor_type;location;lat;lon;timestamp;temperature;humidity
60293;DHT22;52402;52.670;6.750;2022-07-23T00:01:28;14.90;99.90
60293;DHT22;52402;52.670;6.750;2022-07-23T00:03:55;14.90;99.90
60293;DHT22;52402;52.670;6.750;2022-07-23T00:06:21;14.90;99.90
60293;DHT22;52402;52.670;6.750;2022-07-23T00:08:47;14.80;99.90
60293;DHT22;52402;52.670;6.750;2022-07-23T00:11:12;14.70;99.90
60293;DHT22;52402;52.670;6.750;2022-07-23T00:13:39;14.70;99.90
60293;DHT22;52402;52.670;6.750;2022-07-23T00:16:05;14.60;99.90
60293;DHT22;52402;52.670;6.750;2022-07-23T00:18:31;14.60;99.90
60293;DHT22;52402;52.670;6.750;2022-07-23T00:20:56;14.60;99.90
60293;DHT22;52402;52.670;6.750;2022-07-23T00:23:22;14.50;99.90
60293;DHT22;52402;52.670;6.750;2022-07-23T00:25:47;14.50;99.90
60293;DHT22;52402;52.670;6.750;2022-07-23T00:28:13;14.40;99.90
60293;DHT22;52402;52.670;6.750;2022-07-23T00:30:39;14.40;99.90
60293;DHT22;52402;52.670;6.750;2022-07-23T00:33:07;14.30;99.90
60293;DHT22;52402;52.670;6.750;2022-07-23T00:35:35;14.20;99.90
60293;DHT22;52402;52.670;6.750;2022-07-23T00:38:03;14.30;99.90
60293;DHT22;52402;52.670;6.750;2022-07-23T00:40:29;14.20;99.90
60293;DHT22;52402;52.670;6.750;2022-07-23T00:42:55;14.10;99.90
60293;DHT22;52402;52.670;6.750;2022-07-23T00:45:21;14.00;99.90
60293;DHT22;52402;52.670;6.750;2022-07-23T00:47:47;13.90;99.90
60293;DHT22;52402;52.670;6.750;2022-07-23T00:50:13;13.80;99.90
60293;DHT22;52402;52.670;6.750;2022-07-23T00:52:39;13.90;99.90
60293;DHT22;52402;52.670;6.750;2022-07-23T00:55:06;13.90;99.90
60293;DHT22;52402;52.670;6.750;2022-07-23T00:57:32;14.00;99.90
60293;DHT22;52402;52.670;6.750;2022-07-23T00:59:58;14.00;99.90
60293;DHT22;52402;52.670;6.750;2022-07-23T01:02:25;14.00;99.90
60293;DHT22;52402;52.670;6.750;2022-07-23T01:04:51;14.10;99.90
60293;DHT22;52402;52.670;6.750;2022-07-23T01:07:17;14.10;99.90
60293;DHT22;52402;52.670;6.750;2022-07-23T01:09:44;14.10;99.90
60293;DHT22;52402;52.670;6.750;2022-07-23T01:12:10;14.10;99.90
60293;DHT22;52402;52.670;6.750;2022-07-23T01:14:36;14.10;99.90
60293;DHT22;52402;52.670;6.750;2022-07-23T01:17:01;14.10;99.90
60293;DHT22;52402;52.670;6.750;2022-07-23T01:19:27;14.10;99.90
60293;DHT22;52402;52.670;6.750;2022-07-23T01:21:53;14.10;99.90
60293;DHT22;52402;52.670;6.750;2022-07-23T01:24:20;14.10;99.90
60293;DHT22;52402;52.670;6.750;2022-07-23T01:26:47;14.10;99.90
60293;DHT22;52402;52.670;6.750;2022-07-23T01:29:12;14.10;99.90
60293;DHT22;52402;52.670;6.750;2022-07-23T01:31:38;14.10;99.90
60293;DHT22;52402;52.670;6.750;2022-07-23T01:34:04;14.20;99.90
60293;DHT22;52402;52.670;6.750;2022-07-23T01:36:33;14.20;99.90
60293;DHT22;52402;52.670;6.750;2022-07-23T01:38:58;14.20;99.90
60293;DHT22;52402;52.670;6.750;2022-07-23T01:41:24;14.20;99.90
60293;DHT22;52402;52.670;6.750;2022-07-23T01:43:50;14.20;99.90
60293;DHT22;52402;52.670;6.750;2022-07-23T01:46:16;14.20;99.90
60293;DHT22;52402;52.670;6.750;2022-07-23T01:48:41;14.20;99.90
60293;DHT22;52402;52.670;6.750;2022-07-23T01:51:07;14.20;99.90
60293;DHT22;52402;52.670;6.750;2022-07-23T01:53:32;14.10;99.90
60293;DHT22;52402;52.670;6.750;2022-07-23T01:55:58;14.10;99.90
60293;DHT22;52402;52.670;6.750;2022-07-23T01:58:25;14.00;99.90
60293;DHT22;52402;52.670;6.750;2022-07-23T02:00:51;14.00;99.90
60293;DHT22;52402;52.670;6.750;2022-07-23T02:03:16;14.10;99.90
60293;DHT22;52402;52.670;6.750;2022-07-23T02:05:42;14.00;99.90
60293;DHT22;52402;52.670;6.750;2022-07-23T02:08:07;14.00;99.90
60293;DHT22;52402;52.670;6.750;2022-07-23T02:10:33;13.90;99.90
60293;DHT22;52402;52.670;6.750;2022-07-23T02:12:59;13.90;99.90
60293;DHT22;52402;52.670;6.750;2022-07-23T02:15:24;13.80;99.90
60293;DHT22;52402;52.670;6.750;2022-07-23T02:17:50;13.80;99.90
60293;DHT22;52402;52.670;6.750;2022-07-23T02:20:15;13.80;99.90
60293;DHT22;52402;52.670;6.750;2022-07-23T02:22:41;13.80;99.90
60293;DHT22;52402;52.670;6.750;2022-07-23T02:25:07;13.70;99.90
60293;DHT22;52402;52.670;6.750;2022-07-23T02:27:35;13.70;99.90
60293;DHT22;52402;52.670;6.750;2022-07-23T02:30:02;13.70;99.90
60293;DHT22;52402;52.670;6.750;2022-07-23T02:32:28;13.70;99.90
60293;DHT22;52402;52.670;6.750;2022-07-23T02:34:53;13.70;99.90
60293;DHT22;52402;52.670;6.750;2022-07-23T02:37:19;13.60;99.90
60293;DHT22;52402;52.670;6.750;2022-07-23T02:39:45;13.60;99.90
60293;DHT22;52402;52.670;6.750;2022-07-23T02:42:10;13.60;99.90
60293;DHT22;52402;52.670;6.750;2022-07-23T02:44:36;13.50;99.90
60293;DHT22;52402;52.670;6.750;2022-07-23T02:47:02;13.50;99.90
60293;DHT22;52402;52.670;6.750;2022-07-23T02:49:28;13.50;99.90
60293;DHT22;52402;52.670;6.750;2022-07-23T02:51:53;13.40;99.90
60293;DHT22;52402;52.670;6.750;2022-07-23T02:54:19;13.40;99.90
60293;DHT22;52402;52.670;6.750;2022-07-23T02:56:44;13.30;99.90
60293;DHT22;52402;52.670;6.750;2022-07-23T02:59:10;13.30;99.90
60293;DHT22;52402;52.670;6.750;2022-07-23T03:01:36;13.30;99.90
60293;DHT22;52402;52.670;6.750;2022-07-23T03:04:01;13.20;99.90
60293;DHT22;52402;52.670;6.750;2022-07-23T03:06:27;13.20;99.90
60293;DHT22;52402;52.670;6.750;2022-07-23T03:08:52;13.10;99.90
60293;DHT22;52402;52.670;6.750;2022-07-23T03:11:18;13.10;99.90
60293;DHT22;52402;52.670;6.750;2022-07-23T03:13:44;13.10;99.90
60293;DHT22;52402;52.670;6.750;2022-07-23T03:16:09;13.10;99.90
60293;DHT22;52402;52.670;6.750;2022-07-23T03:18:35;13.00;99.90
60293;DHT22;52402;52.670;6.750;2022-07-23T03:21:01;13.00;99.90
60293;DHT22;52402;52.670;6.750;2022-07-23T03:23:26;13.10;99.90
60293;DHT22;52402;52.670;6.750;2022-07-23T03:25:52;13.10;99.90
60293;DHT22;52402;52.670;6.750;2022-07-23T03:28:18;13.00;99.90
60293;DHT22;52402;52.670;6.750;2022-07-23T03:30:45;13.00;99.90
60293;DHT22;52402;52.670;6.750;2022-07-23T03:33:16;13.00;99.90
60293;DHT22;52402;52.670;6.750;2022-07-23T03:35:42;12.90;99.90
60293;DHT22;52402;52.670;6.750;2022-07-23T03:38:08;12.80;99.90
60293;DHT22;52402;52.670;6.750;2022-07-23T03:40:33;12.80;99.90
60293;DHT22;52402;52.670;6.750;2022-07-23T03:42:59;12.80;99.90
60293;DHT22;52402;52.670;6.750;2022-07-23T03:45:24;12.80;99.90
60293;DHT22;52402;52.670;6.750;2022-07-23T03:47:50;12.80;99.90
60293;DHT22;52402;52.670;6.750;2022-07-23T03:50:16;12.80;99.90
60293;DHT22;52402;52.670;6.750;2022-07-23T03:52:41;12.70;99.90
60293;DHT22;52402;52.670;6.750;2022-07-23T03:55:07;12.70;99.90
60293;DHT22;52402;52.670;6.750;2022-07-23T03:57:32;12.70;99.90
60293;DHT22;52402;52.670;6.750;2022-07-23T03:59:58;12.80;99.90
60293;DHT22;52402;52.670;6.750;2022-07-23T04:02:24;12.70;99.90
60293;DHT22;52402;52.670;6.750;2022-07-23T04:04:49;12.70;99.90
60293;DHT22;52402;52.670;6.750;2022-07-23T04:07:15;12.60;99.90
60293;DHT22;52402;52.670;6.750;2022-07-23T04:09:43;12.60;99.90
60293;DHT22;52402;52.670;6.750;2022-07-23T04:12:09;12.70;99.90
60293;DHT22;52402;52.670;6.750;2022-07-23T04:14:35;12.70;99.90
60293;DHT22;52402;52.670;6.750;2022-07-23T04:17:00;12.60;99.90
60293;DHT22;52402;52.670;6.750;2022-07-23T04:19:26;12.60;99.90
60293;DHT22;52402;52.670;6.750;2022-07-23T04:21:52;12.60;99.90
60293;DHT22;52402;52.670;6.750;2022-07-23T04:24:18;12.60;99.90
60293;DHT22;52402;52.670;6.750;2022-07-23T04:26:44;12.60;99.90
60293;DHT22;52402;52.670;6.750;2022-07-23T04:29:10;12.60;99.90
60293;DHT22;52402;52.670;6.750;2022-07-23T04:31:35;12.60;99.90
60293;DHT22;52402;52.670;6.750;2022-07-23T04:34:01;12.60;99.90
60293;DHT22;52402;52.670;6.750;2022-07-23T04:36:27;12.70;99.90
60293;DHT22;52402;52.670;6.750;2022-07-23T04:38:53;12.70;99.90
60293;DHT22;52402;52.670;6.750;2022-07-23T04:41:18;12.70;99.90
60293;DHT22;52402;52.670;6.750;2022-07-23T04:43:44;12.70;99.90
60293;DHT22;52402;52.670;6.750;2022-07-23T04:46:09;12.60;99.90
60293;DHT22;52402;52.670;6.750;2022-07-23T04:48:36;12.70;99.90
60293;DHT22;52402;52.670;6.750;2022-07-23T04:51:02;12.70;99.90
60293;DHT22;52402;52.670;6.750;2022-07-23T04:53:27;12.60;99.90
60293;DHT22;52402;52.670;6.750;2022-07-23T04:55:53;12.60;99.90
60293;DHT22;52402;52.670;6.750;2022-07-23T04:58:19;12.70;99.90
60293;DHT22;52402;52.670;6.750;2022-07-23T05:00:44;12.70;99.90
60293;DHT22;52402;52.670;6.750;2022-07-23T05:03:10;12.80;99.90
60293;DHT22;52402;52.670;6.750;2022-07-23T05:05:35;12.80;99.90
60293;DHT22;52402;52.670;6.750;2022-07-23T05:08:01;12.80;99.90
60293;DHT22;52402;52.670;6.750;2022-07-23T05:10:27;12.90;99.90
60293;DHT22;52402;52.670;6.750;2022-07-23T05:12:53;12.90;99.90
60293;DHT22;52402;52.670;6.750;2022-07-23T05:15:18;12.90;99.90
60293;DHT22;52402;52.670;6.750;2022-07-23T05:17:44;13.00;99.90
60293;DHT22;52402;52.670;6.750;2022-07-23T05:20:10;13.00;99.90
60293;DHT22;52402;52.670;6.750;2022-07-23T05:22:35;13.00;99.90
60293;DHT22;52402;52.670;6.750;2022-07-23T05:25:01;13.10;99.90
60293;DHT22;52402;52.670;6.750;2022-07-23T05:27:26;13.20;99.90
60293;DHT22;52402;52.670;6.750;2022-07-23T05:29:52;13.20;99.90
60293;DHT22;52402;52.670;6.750;2022-07-23T05:32:18;13.20;99.90
60293;DHT22;52402;52.670;6.750;2022-07-23T05:34:43;13.30;99.90
60293;DHT22;52402;52.670;6.750;2022-07-23T05:37:09;13.30;99.90
60293;DHT22;52402;52.670;6.750;2022-07-23T05:39:34;13.40;99.90
60293;DHT22;52402;52.670;6.750;2022-07-23T05:42:00;13.40;99.90
60293;DHT22;52402;52.670;6.750;2022-07-23T05:44:25;13.50;99.90
60293;DHT22;52402;52.670;6.750;2022-07-23T05:46:52;13.50;99.90
60293;DHT22;52402;52.670;6.750;2022-07-23T05:49:20;13.60;99.90
60293;DHT22;52402;52.670;6.750;2022-07-23T05:51:45;13.60;99.90
60293;DHT22;52402;52.670;6.750;2022-07-23T05:54:11;13.70;99.90
60293;DHT22;52402;52.670;6.750;2022-07-23T05:56:37;13.80;99.90
60293;DHT22;52402;52.670;6.750;2022-07-23T05:59:02;13.90;99.90
60293;DHT22;52402;52.670;6.750;2022-07-23T06:01:28;13.90;99.90
60293;DHT22;52402;52.670;6.750;2022-07-23T06:03:53;14.00;99.90
60293;DHT22;52402;52.670;6.750;2022-07-23T06:06:19;14.10;99.90
60293;DHT22;52402;52.670;6.750;2022-07-23T06:08:45;14.20;99.90
60293;DHT22;52402;52.670;6.750;2022-07-23T06:11:10;14.20;99.90
60293;DHT22;52402;52.670;6.750;2022-07-23T06:13:36;14.30;99.90
60293;DHT22;52402;52.670;6.750;2022-07-23T06:16:02;14.40;99.90
60293;DHT22;52402;52.670;6.750;2022-07-23T06:18:27;14.50;99.90
60293;DHT22;52402;52.670;6.750;2022-07-23T06:20:53;14.50;99.90
60293;DHT22;52402;52.670;6.750;2022-07-23T06:23:18;14.60;99.90
60293;DHT22;52402;52.670;6.750;2022-07-23T06:25:44;14.70;99.90
60293;DHT22;52402;52.670;6.750;2022-07-23T06:28:09;14.80;99.90
60293;DHT22;52402;52.670;6.750;2022-07-23T06:30:35;14.80;99.90
60293;DHT22;52402;52.670;6.750;2022-07-23T06:33:01;14.90;99.90
60293;DHT22;52402;52.670;6.750;2022-07-23T06:35:26;14.90;99.90
60293;DHT22;52402;52.670;6.750;2022-07-23T06:37:52;15.00;99.90
60293;DHT22;52402;52.670;6.750;2022-07-23T06:40:17;15.00;99.90
60293;DHT22;52402;52.670;6.750;2022-07-23T06:42:43;15.10;99.90
60293;DHT22;52402;52.670;6.750;2022-07-23T06:45:09;15.10;99.90
60293;DHT22;52402;52.670;6.750;2022-07-23T06:47:34;15.30;99.90
60293;DHT22;52402;52.670;6.750;2022-07-23T06:50:00;15.30;99.90
60293;DHT22;52402;52.670;6.750;2022-07-23T06:52:26;15.30;99.90
60293;DHT22;52402;52.670;6.750;2022-07-23T06:54:52;15.40;99.90
60293;DHT22;52402;52.670;6.750;2022-07-23T06:57:17;15.40;99.90
60293;DHT22;52402;52.670;6.750;2022-07-23T06:59:43;15.50;99.90
60293;DHT22;52402;52.670;6.750;2022-07-23T07:02:09;15.60;99.90
60293;DHT22;52402;52.670;6.750;2022-07-23T07:04:34;15.70;99.90
60293;DHT22;52402;52.670;6.750;2022-07-23T07:07:00;15.80;99.90
60293;DHT22;52402;52.670;6.750;2022-07-23T07:09:26;15.80;99.90
60293;DHT22;52402;52.670;6.750;2022-07-23T07:11:52;15.90;99.90
60293;DHT22;52402;52.670;6.750;2022-07-23T07:14:17;15.90;99.90
60293;DHT22;52402;52.670;6.750;2022-07-23T07:16:43;15.90;99.90
60293;DHT22;52402;52.670;6.750;2022-07-23T07:19:08;15.90;99.90
60293;DHT22;52402;52.670;6.750;2022-07-23T07:21:34;16.00;99.90
60293;DHT22;52402;52.670;6.750;2022-07-23T07:24:00;16.10;99.90
60293;DHT22;52402;52.670;6.750;2022-07-23T07:26:26;16.20;99.90
60293;DHT22;52402;52.670;6.750;2022-07-23T07:28:51;16.20;99.90
60293;DHT22;52402;52.670;6.750;2022-07-23T07:31:17;16.30;99.90
60293;DHT22;52402;52.670;6.750;2022-07-23T07:33:43;16.40;99.90
60293;DHT22;52402;52.670;6.750;2022-07-23T07:36:08;16.40;99.90
60293;DHT22;52402;52.670;6.750;2022-07-23T07:38:34;16.40;99.90
60293;DHT22;52402;52.670;6.750;2022-07-23T07:41:00;16.60;99.90
60293;DHT22;52402;52.670;6.750;2022-07-23T07:43:26;16.80;99.90
60293;DHT22;52402;52.670;6.750;2022-07-23T07:45:52;16.90;99.90
60293;DHT22;52402;52.670;6.750;2022-07-23T07:48:17;17.10;99.90
60293;DHT22;52402;52.670;6.750;2022-07-23T07:50:43;17.20;99.90
60293;DHT22;52402;52.670;6.750;2022-07-23T07:53:08;17.30;99.90
60293;DHT22;52402;52.670;6.750;2022-07-23T07:55:35;17.50;99.90
60293;DHT22;52402;52.670;6.750;2022-07-23T07:58:01;17.60;99.90
60293;DHT22;52402;52.670;6.750;2022-07-23T08:00:26;17.70;99.90
60293;DHT22;52402;52.670;6.750;2022-07-23T08:02:53;17.80;99.90
60293;DHT22;52402;52.670;6.750;2022-07-23T08:07:46;18.00;99.90
60293;DHT22;52402;52.670;6.750;2022-07-23T08:10:12;18.10;99.90
60293;DHT22;52402;52.670;6.750;2022-07-23T08:12:45;18.30;99.90
60293;DHT22;52402;52.670;6.750;2022-07-23T08:15:12;18.40;99.90
60293;DHT22;52402;52.670;6.750;2022-07-23T08:17:38;18.50;99.90
60293;DHT22;52402;52.670;6.750;2022-07-23T08:20:05;18.60;99.90
60293;DHT22;52402;52.670;6.750;2022-07-23T08:25:09;18.80;99.90
60293;DHT22;52402;52.670;6.750;2022-07-23T08:27:35;19.00;99.90
60293;DHT22;52402;52.670;6.750;2022-07-23T08:30:01;19.10;99.90
60293;DHT22;52402;52.670;6.750;2022-07-23T08:32:26;19.30;99.90
60293;DHT22;52402;52.670;6.750;2022-07-23T08:34:52;19.50;99.90
60293;DHT22;52402;52.670;6.750;2022-07-23T08:37:17;19.60;99.90
60293;DHT22;52402;52.670;6.750;2022-07-23T08:39:43;19.60;99.90
60293;DHT22;52402;52.670;6.750;2022-07-23T08:42:08;19.70;99.90
60293;DHT22;52402;52.670;6.750;2022-07-23T08:44:35;19.50;99.90
60293;DHT22;52402;52.670;6.750;2022-07-23T08:47:01;19.70;99.90
60293;DHT22;52402;52.670;6.750;2022-07-23T08:49:29;19.90;99.90
60293;DHT22;52402;52.670;6.750;2022-07-23T08:51:55;19.90;99.90
60293;DHT22;52402;52.670;6.750;2022-07-23T08:54:22;19.90;99.90
60293;DHT22;52402;52.670;6.750;2022-07-23T08:56:48;19.80;99.90
60293;DHT22;52402;52.670;6.750;2022-07-23T08:59:14;19.80;99.90
60293;DHT22;52402;52.670;6.750;2022-07-23T09:01:39;19.80;99.90
60293;DHT22;52402;52.670;6.750;2022-07-23T09:04:05;19.80;99.90
60293;DHT22;52402;52.670;6.750;2022-07-23T09:06:31;20.10;99.90
60293;DHT22;52402;52.670;6.750;2022-07-23T09:08:56;20.00;99.90
60293;DHT22;52402;52.670;6.750;2022-07-23T09:11:22;20.00;99.90
60293;DHT22;52402;52.670;6.750;2022-07-23T09:13:50;19.90;99.90
60293;DHT22;52402;52.670;6.750;2022-07-23T09:16:31;19.80;99.90
60293;DHT22;52402;52.670;6.750;2022-07-23T09:19:05;19.70;99.90
60293;DHT22;52402;52.670;6.750;2022-07-23T09:21:32;20.00;99.90
60293;DHT22;52402;52.670;6.750;2022-07-23T09:29:02;20.60;99.90
60293;DHT22;52402;52.670;6.750;2022-07-23T09:34:25;20.50;99.90
60293;DHT22;52402;52.670;6.750;2022-07-23T09:36:57;20.50;99.90
60293;DHT22;52402;52.670;6.750;2022-07-23T09:39:28;20.30;99.90
60293;DHT22;52402;52.670;6.750;2022-07-23T09:41:55;20.40;99.90
60293;DHT22;52402;52.670;6.750;2022-07-23T09:44:21;20.60;99.90
60293;DHT22;52402;52.670;6.750;2022-07-23T09:46:49;20.80;99.90
60293;DHT22;52402;52.670;6.750;2022-07-23T09:49:20;20.80;99.90
60293;DHT22;52402;52.670;6.750;2022-07-23T09:51:52;20.90;99.90
60293;DHT22;52402;52.670;6.750;2022-07-23T09:56:56;21.10;99.90
60293;DHT22;52402;52.670;6.750;2022-07-23T09:59:27;21.30;99.90
60293;DHT22;52402;52.670;6.750;2022-07-23T10:01:58;21.60;99.90
60293;DHT22;52402;52.670;6.750;2022-07-23T10:04:26;21.30;99.50
60293;DHT22;52402;52.670;6.750;2022-07-23T10:06:54;21.10;99.40
60293;DHT22;52402;52.670;6.750;2022-07-23T10:09:35;21.00;99.50
60293;DHT22;52402;52.670;6.750;2022-07-23T10:12:04;21.00;99.90
60293;DHT22;52402;52.670;6.750;2022-07-23T10:14:50;20.80;99.90
60293;DHT22;52402;52.670;6.750;2022-07-23T10:17:16;20.90;99.90
60293;DHT22;52402;52.670;6.750;2022-07-23T10:19:42;21.40;99.90
60293;DHT22;52402;52.670;6.750;2022-07-23T10:22:11;21.40;99.70
60293;DHT22;52402;52.670;6.750;2022-07-23T10:36:49;22.00;99.30
60293;DHT22;52402;52.670;6.750;2022-07-23T10:39:22;22.10;99.60
60293;DHT22;52402;52.670;6.750;2022-07-23T10:41:49;22.20;99.10
60293;DHT22;52402;52.670;6.750;2022-07-23T10:44:20;22.40;98.50
60293;DHT22;52402;52.670;6.750;2022-07-23T10:47:04;22.50;98.60
60293;DHT22;52402;52.670;6.750;2022-07-23T10:49:39;22.70;97.90
60293;DHT22;52402;52.670;6.750;2022-07-23T10:54:41;22.40;97.50
60293;DHT22;52402;52.670;6.750;2022-07-23T10:57:08;22.50;97.40
60293;DHT22;52402;52.670;6.750;2022-07-23T11:02:35;22.20;97.00
60293;DHT22;52402;52.670;6.750;2022-07-23T11:05:10;22.40;98.00
60293;DHT22;52402;52.670;6.750;2022-07-23T11:08:09;22.60;97.80
60293;DHT22;52402;52.670;6.750;2022-07-23T11:24:09;23.60;95.10
60293;DHT22;52402;52.670;6.750;2022-07-23T11:34:49;24.10;94.40
60293;DHT22;52402;52.670;6.750;2022-07-23T11:37:34;24.00;93.40
60293;DHT22;52402;52.670;6.750;2022-07-23T11:40:02;24.10;93.50
60293;DHT22;52402;52.670;6.750;2022-07-23T11:42:28;24.20;92.80
60293;DHT22;52402;52.670;6.750;2022-07-23T11:44:54;24.30;92.80
60293;DHT22;52402;52.670;6.750;2022-07-23T11:47:25;23.70;92.80
60293;DHT22;52402;52.670;6.750;2022-07-23T11:49:56;23.60;93.80
60293;DHT22;52402;52.670;6.750;2022-07-23T11:52:22;23.70;93.90
60293;DHT22;52402;52.670;6.750;2022-07-23T11:54:59;23.60;93.70
60293;DHT22;52402;52.670;6.750;2022-07-23T11:57:30;23.30;93.90
60293;DHT22;52402;52.670;6.750;2022-07-23T12:00:06;22.90;93.70
60293;DHT22;52402;52.670;6.750;2022-07-23T12:02:34;23.10;94.00
60293;DHT22;52402;52.670;6.750;2022-07-23T12:05:00;23.40;94.20
60293;DHT22;52402;52.670;6.750;2022-07-23T12:07:37;23.70;94.50
60293;DHT22;52402;52.670;6.750;2022-07-23T12:10:42;23.60;94.20
60293;DHT22;52402;52.670;6.750;2022-07-23T12:13:14;23.30;93.70
60293;DHT22;52402;52.670;6.750;2022-07-23T12:15:49;23.30;93.70
60293;DHT22;52402;52.670;6.750;2022-07-23T12:18:20;23.70;93.30
60293;DHT22;52402;52.670;6.750;2022-07-23T12:20:49;23.50;93.40
60293;DHT22;52402;52.670;6.750;2022-07-23T12:23:16;23.50;93.50
60293;DHT22;52402;52.670;6.750;2022-07-23T12:25:44;23.60;93.70
60293;DHT22;52402;52.670;6.750;2022-07-23T12:28:13;23.80;93.30
60293;DHT22;52402;52.670;6.750;2022-07-23T12:30:49;23.70;93.40
60293;DHT22;52402;52.670;6.750;2022-07-23T12:36:01;23.20;94.30
60293;DHT22;52402;52.670;6.750;2022-07-23T12:38:57;22.90;94.20
60293;DHT22;52402;52.670;6.750;2022-07-23T12:41:22;23.00;94.60
60293;DHT22;52402;52.670;6.750;2022-07-23T12:43:47;22.90;94.30
60293;DHT22;52402;52.670;6.750;2022-07-23T12:46:15;23.00;94.50
60293;DHT22;52402;52.670;6.750;2022-07-23T12:51:21;23.90;94.50
60293;DHT22;52402;52.670;6.750;2022-07-23T12:53:52;24.40;94.40
60293;DHT22;52402;52.670;6.750;2022-07-23T12:56:22;24.70;93.70
60293;DHT22;52402;52.670;6.750;2022-07-23T12:58:57;25.00;93.30
60293;DHT22;52402;52.670;6.750;2022-07-23T13:06:37;25.00;93.50
60293;DHT22;52402;52.670;6.750;2022-07-23T13:09:04;24.80;91.80
60293;DHT22;52402;52.670;6.750;2022-07-23T13:11:30;24.40;92.70
60293;DHT22;52402;52.670;6.750;2022-07-23T13:13:56;24.10;92.90
60293;DHT22;52402;52.670;6.750;2022-07-23T13:16:22;24.20;93.60
60293;DHT22;52402;52.670;6.750;2022-07-23T13:18:47;24.10;93.80
60293;DHT22;52402;52.670;6.750;2022-07-23T13:21:13;23.80;93.70
60293;DHT22;52402;52.670;6.750;2022-07-23T13:23:39;23.80;94.30
60293;DHT22;52402;52.670;6.750;2022-07-23T13:26:05;23.90;93.80
60293;DHT22;52402;52.670;6.750;2022-07-23T13:28:31;23.50;93.10
60293;DHT22;52402;52.670;6.750;2022-07-23T13:30:56;23.60;93.30
60293;DHT22;52402;52.670;6.750;2022-07-23T13:33:24;23.50;93.10
60293;DHT22;52402;52.670;6.750;2022-07-23T13:35:51;23.40;93.70
60293;DHT22;52402;52.670;6.750;2022-07-23T13:38:18;23.60;94.20
60293;DHT22;52402;52.670;6.750;2022-07-23T13:40:46;24.10;94.20
60293;DHT22;52402;52.670;6.750;2022-07-23T13:43:14;23.90;93.80
60293;DHT22;52402;52.670;6.750;2022-07-23T13:45:41;23.80;94.00
60293;DHT22;52402;52.670;6.750;2022-07-23T13:48:08;23.70;94.60
60293;DHT22;52402;52.670;6.750;2022-07-23T13:50:35;24.00;94.90
60293;DHT22;52402;52.670;6.750;2022-07-23T13:53:03;24.40;94.60
60293;DHT22;52402;52.670;6.750;2022-07-23T13:55:29;24.50;93.00
60293;DHT22;52402;52.670;6.750;2022-07-23T13:57:55;24.40;92.80
60293;DHT22;52402;52.670;6.750;2022-07-23T14:00:20;24.20;92.40
60293;DHT22;52402;52.670;6.750;2022-07-23T14:02:46;24.00;92.50
60293;DHT22;52402;52.670;6.750;2022-07-23T14:05:12;24.00;93.10
60293;DHT22;52402;52.670;6.750;2022-07-23T14:07:38;24.00;93.70
60293;DHT22;52402;52.670;6.750;2022-07-23T14:10:06;24.40;94.30
60293;DHT22;52402;52.670;6.750;2022-07-23T14:12:32;24.80;94.00
60293;DHT22;52402;52.670;6.750;2022-07-23T14:14:58;24.80;92.70
60293;DHT22;52402;52.670;6.750;2022-07-23T14:17:24;24.80;92.60
60293;DHT22;52402;52.670;6.750;2022-07-23T14:19:50;24.60;93.10
60293;DHT22;52402;52.670;6.750;2022-07-23T14:22:16;25.00;92.20
60293;DHT22;52402;52.670;6.750;2022-07-23T14:24:42;25.40;92.80
60293;DHT22;52402;52.670;6.750;2022-07-23T14:27:08;25.50;92.90
60293;DHT22;52402;52.670;6.750;2022-07-23T14:29:34;25.70;92.50
60293;DHT22;52402;52.670;6.750;2022-07-23T14:32:00;25.90;92.00
60293;DHT22;52402;52.670;6.750;2022-07-23T14:34:25;26.20;91.30
60293;DHT22;52402;52.670;6.750;2022-07-23T14:36:51;26.50;90.70
60293;DHT22;52402;52.670;6.750;2022-07-23T14:39:17;26.80;91.00
60293;DHT22;52402;52.670;6.750;2022-07-23T14:41:43;26.90;90.60
60293;DHT22;52402;52.670;6.750;2022-07-23T14:44:09;27.10;89.70
60293;DHT22;52402;52.670;6.750;2022-07-23T14:46:34;27.20;90.00
60293;DHT22;52402;52.670;6.750;2022-07-23T14:49:00;27.20;89.30
60293;DHT22;52402;52.670;6.750;2022-07-23T14:51:26;27.30;89.40
60293;DHT22;52402;52.670;6.750;2022-07-23T14:53:51;27.30;89.00
60293;DHT22;52402;52.670;6.750;2022-07-23T14:56:17;27.50;89.40
60293;DHT22;52402;52.670;6.750;2022-07-23T14:58:43;27.60;90.10
60293;DHT22;52402;52.670;6.750;2022-07-23T15:01:08;27.80;88.90
60293;DHT22;52402;52.670;6.750;2022-07-23T15:03:34;28.00;88.30
60293;DHT22;52402;52.670;6.750;2022-07-23T15:06:00;27.90;87.70
60293;DHT22;52402;52.670;6.750;2022-07-23T15:08:25;28.00;87.40
60293;DHT22;52402;52.670;6.750;2022-07-23T15:10:51;28.10;86.90
60293;DHT22;52402;52.670;6.750;2022-07-23T15:13:17;28.30;87.20
60293;DHT22;52402;52.670;6.750;2022-07-23T15:15:43;28.10;85.60
60293;DHT22;52402;52.670;6.750;2022-07-23T15:18:08;27.60;85.80
60293;DHT22;52402;52.670;6.750;2022-07-23T15:20:35;27.80;86.40
60293;DHT22;52402;52.670;6.750;2022-07-23T15:23:05;27.60;85.60
60293;DHT22;52402;52.670;6.750;2022-07-23T15:25:30;27.00;86.50
60293;DHT22;52402;52.670;6.750;2022-07-23T15:27:59;27.00;87.10
60293;DHT22;52402;52.670;6.750;2022-07-23T15:30:26;27.00;86.60
60293;DHT22;52402;52.670;6.750;2022-07-23T15:32:51;26.90;86.00
60293;DHT22;52402;52.670;6.750;2022-07-23T15:35:17;26.50;87.90
60293;DHT22;52402;52.670;6.750;2022-07-23T15:37:43;26.60;86.30
60293;DHT22;52402;52.670;6.750;2022-07-23T15:40:09;26.50;86.30
60293;DHT22;52402;52.670;6.750;2022-07-23T15:42:35;26.90;86.80
60293;DHT22;52402;52.670;6.750;2022-07-23T15:45:01;27.10;86.60
60293;DHT22;52402;52.670;6.750;2022-07-23T15:47:26;27.10;86.40
60293;DHT22;52402;52.670;6.750;2022-07-23T15:49:52;27.20;86.70
60293;DHT22;52402;52.670;6.750;2022-07-23T15:52:17;27.00;85.90
60293;DHT22;52402;52.670;6.750;2022-07-23T15:54:43;27.00;85.80
60293;DHT22;52402;52.670;6.750;2022-07-23T15:57:09;26.50;85.90
60293;DHT22;52402;52.670;6.750;2022-07-23T15:59:36;26.40;87.00
60293;DHT22;52402;52.670;6.750;2022-07-23T16:02:02;26.00;87.90
60293;DHT22;52402;52.670;6.750;2022-07-23T16:04:28;26.10;89.30
60293;DHT22;52402;52.670;6.750;2022-07-23T16:06:54;26.30;88.00
60293;DHT22;52402;52.670;6.750;2022-07-23T16:09:19;26.40;87.40
60293;DHT22;52402;52.670;6.750;2022-07-23T16:11:45;26.60;86.70
60293;DHT22;52402;52.670;6.750;2022-07-23T16:14:10;26.90;87.30
60293;DHT22;52402;52.670;6.750;2022-07-23T16:16:36;27.00;86.50
60293;DHT22;52402;52.670;6.750;2022-07-23T16:19:02;27.00;86.50
60293;DHT22;52402;52.670;6.750;2022-07-23T16:21:27;26.90;85.60
60293;DHT22;52402;52.670;6.750;2022-07-23T16:23:53;26.80;86.40
60293;DHT22;52402;52.670;6.750;2022-07-23T16:26:19;26.50;86.30
60293;DHT22;52402;52.670;6.750;2022-07-23T16:28:46;26.40;86.60
60293;DHT22;52402;52.670;6.750;2022-07-23T16:31:12;26.70;85.90
60293;DHT22;52402;52.670;6.750;2022-07-23T16:33:38;27.00;86.10